Time;durP1;ratioP1;P1;durP2;ratioP2;P2;SDS_P1;SDS_P2;PMS_P1;PMS_P2;Temp;Humidity;BMP_temperature;BMP_pressure;BME280_temperature;BME280_humidity;BME280_pressure;Samples;Min_cycle;Max_cycle;Signal;HPM_P1;HPM_P2
2022/02/02 04:52:43;;;;;;;7.93;1.80;;;7.00;99.90;;;;;;4858516;29;20622;-78
2022/02/02 04:55:21;;;;;;;9.45;2.20;;;7.00;99.90;;;;;;4853571;29;20056;-78
2022/02/02 04:58:04;;;;;;;9.27;1.90;;;7.00;99.90;;;;;;4860647;29;20054;-79
2022/02/02 05:04:09;;;;;;;8.13;1.50;;;7.00;99.90;;;;;;5090782;27;20738;-80
2022/02/02 05:06:41;;;;;;;6.97;1.60;;;7.00;99.90;;;;;;5070517;28;20130;-79
2022/02/02 05:09:22;;;;;;;7.25;1.50;;;6.90;99.90;;;;;;5070617;28;20136;-81
2022/02/02 05:17:42;;;;;;;7.82;1.83;;;6.90;99.90;;;;;;5008786;28;20503;-82
2022/02/02 05:53:07;;;;;;;9.88;2.42;;;6.80;99.90;;;;;;5065952;28;19927;-80
2022/02/02 05:55:40;;;;;;;9.18;1.85;;;6.80;99.90;;;;;;5069584;28;20128;-78
2022/02/02 05:58:08;;;;;;;11.77;2.47;;;6.80;99.90;;;;;;5069403;28;20055;-83
2022/02/02 06:00:37;;;;;;;11.02;2.50;;;6.80;99.90;;;;;;5069736;28;20132;-80
2022/02/02 06:03:11;;;;;;;8.25;2.05;;;6.90;99.90;;;;;;5069181;28;20063;-81
2022/02/02 06:05:38;;;;;;;9.98;2.75;;;6.90;99.90;;;;;;5069328;28;20053;-77
2022/02/02 06:08:10;;;;;;;8.23;2.25;;;6.90;99.90;;;;;;5069389;28;20052;-82
2022/02/02 06:10:39;;;;;;;5.25;1.77;;;6.80;99.90;;;;;;5069355;28;20080;-79
2022/02/02 06:13:06;;;;;;;8.18;2.03;;;6.90;99.90;;;;;;5066516;28;20061;-81
2022/02/02 06:15:33;;;;;;;11.60;2.42;;;6.90;99.90;;;;;;5055978;28;20095;-82
2022/02/02 06:18:02;;;;;;;7.50;2.08;;;6.90;99.90;;;;;;5055828;28;20570;-79
2022/02/02 06:20:30;;;;;;;12.40;2.20;;;6.90;99.90;;;;;;5055774;28;20474;-80
2022/02/02 06:23:03;;;;;;;10.40;2.20;;;6.90;99.90;;;;;;5055741;28;20049;-80
2022/02/02 06:25:34;;;;;;;8.40;2.08;;;6.90;99.90;;;;;;5055832;28;20045;-81
2022/02/02 06:28:04;;;;;;;15.05;2.35;;;6.90;99.90;;;;;;5055758;28;20127;-80
2022/02/02 06:30:33;;;;;;;7.90;2.63;;;6.80;99.90;;;;;;5056066;28;20080;-83
2022/02/02 06:33:06;;;;;;;9.30;1.90;;;6.80;99.90;;;;;;5055891;28;20123;-82
2022/02/02 06:35:34;;;;;;;11.18;2.05;;;6.80;99.90;;;;;;5055826;28;20141;-82
2022/02/02 06:38:02;;;;;;;9.50;1.90;;;6.80;99.90;;;;;;5055563;28;20057;-81
2022/02/02 06:40:31;;;;;;;11.50;2.15;;;6.80;99.90;;;;;;5055466;28;20521;-80
2022/02/02 06:42:58;;;;;;;9.80;1.83;;;6.80;99.90;;;;;;5055189;28;20512;-82
2022/02/02 06:45:26;;;;;;;9.23;2.17;;;6.80;99.90;;;;;;5055710;28;20460;-81
2022/02/02 06:47:53;;;;;;;9.63;1.50;;;6.80;99.90;;;;;;5055486;28;20103;-82
2022/02/02 06:50:25;;;;;;;9.30;2.35;;;6.80;99.90;;;;;;5056626;28;20045;-79
2022/02/02 06:53:08;;;;;;;7.15;1.83;;;6.80;99.90;;;;;;5055713;28;20072;-78
2022/02/02 06:55:50;;;;;;;8.50;1.90;;;6.80;99.90;;;;;;5055171;28;20490;-80
2022/02/02 06:58:33;;;;;;;10.20;2.10;;;6.80;99.90;;;;;;5055422;28;20045;-82
2022/02/02 07:01:11;;;;;;;7.82;1.70;;;6.80;99.90;;;;;;5056838;28;20474;-80
2022/02/02 07:04:00;;;;;;;8.20;1.90;;;6.90;99.90;;;;;;5054879;28;20059;-82
2022/02/02 07:06:41;;;;;;;9.50;2.05;;;6.80;99.90;;;;;;5054959;28;20099;-80
2022/02/02 07:09:24;;;;;;;11.70;2.72;;;6.90;99.90;;;;;;5054988;28;20045;-83
2022/02/02 07:12:07;;;;;;;8.30;2.05;;;6.90;99.90;;;;;;5055109;28;20448;-80
2022/02/02 07:14:57;;;;;;;7.57;2.00;;;7.00;99.90;;;;;;5054923;28;20051;-83
2022/02/02 07:17:40;;;;;;;10.48;2.30;;;7.00;99.90;;;;;;5057349;28;20079;-81
2022/02/02 07:20:15;;;;;;;7.50;2.10;;;7.00;99.90;;;;;;5054586;28;20048;-83
2022/02/02 07:23:13;;;;;;;8.02;2.05;;;7.10;99.90;;;;;;5054634;28;20079;-82
2022/02/02 07:28:31;;;;;;;10.57;1.98;;;7.10;99.90;;;;;;5055210;28;20045;-82
2022/02/02 07:31:09;;;;;;;11.07;2.15;;;7.10;99.90;;;;;;5055054;28;20121;-80
2022/02/02 07:33:43;;;;;;;9.38;1.85;;;7.10;99.90;;;;;;5054920;28;20073;-80
2022/02/02 07:36:17;;;;;;;7.07;1.73;;;7.10;99.90;;;;;;5057801;28;20052;-78
2022/02/02 07:38:53;;;;;;;9.80;2.10;;;7.00;99.90;;;;;;5057148;28;20145;-80
2022/02/02 07:41:27;;;;;;;8.75;1.73;;;7.00;99.90;;;;;;5054236;28;20049;-80
2022/02/02 07:44:02;;;;;;;7.33;1.80;;;7.00;99.90;;;;;;5054362;28;20478;-80
2022/02/02 07:46:30;;;;;;;8.55;2.10;;;7.00;99.90;;;;;;5054754;28;20045;-81
2022/02/02 07:48:58;;;;;;;7.07;1.80;;;7.00;99.90;;;;;;5054382;28;20072;-80
2022/02/02 07:51:27;;;;;;;7.75;1.85;;;7.10;99.90;;;;;;5054537;28;20464;-79
2022/02/02 07:53:59;;;;;;;7.07;2.13;;;7.10;99.90;;;;;;5054138;28;20107;-80
2022/02/02 07:56:33;;;;;;;10.65;2.00;;;7.10;99.90;;;;;;5054286;28;20143;-83
2022/02/02 07:59:16;;;;;;;7.20;2.13;;;7.10;99.90;;;;;;5054751;28;20073;-81
2022/02/02 08:01:44;;;;;;;6.30;2.15;;;7.00;99.90;;;;;;5056795;28;20064;-78
2022/02/02 08:04:12;;;;;;;11.50;2.28;;;7.00;99.90;;;;;;5054297;28;20102;-81
2022/02/02 08:06:41;;;;;;;13.65;2.22;;;7.10;99.90;;;;;;5054193;28;20130;-80
2022/02/02 08:09:12;;;;;;;10.07;2.70;;;7.00;99.90;;;;;;5054304;28;20045;-80
2022/02/02 08:11:39;;;;;;;9.32;2.45;;;7.00;99.90;;;;;;5054355;28;20068;-85
2022/02/02 08:14:08;;;;;;;11.27;1.90;;;7.00;99.90;;;;;;5054288;28;20105;-82
2022/02/02 08:16:37;;;;;;;9.98;2.25;;;7.10;99.90;;;;;;5054207;28;20156;-78
2022/02/02 08:19:04;;;;;;;13.52;2.63;;;7.10;99.90;;;;;;5054345;28;20049;-80
2022/02/02 08:21:31;;;;;;;9.35;2.20;;;7.10;99.90;;;;;;5054329;28;20098;-82
2022/02/02 08:23:58;;;;;;;12.45;2.10;;;7.10;99.90;;;;;;5054600;28;20071;-80
2022/02/02 08:26:25;;;;;;;13.07;2.33;;;7.20;99.90;;;;;;5054651;28;20136;-81
2022/02/02 08:28:56;;;;;;;7.75;1.90;;;7.20;99.90;;;;;;5054499;28;20076;-83
2022/02/02 08:31:27;;;;;;;9.35;2.05;;;7.20;99.90;;;;;;5053986;28;20417;-81
2022/02/02 08:33:58;;;;;;;7.40;2.00;;;7.20;99.90;;;;;;5053804;28;20053;-82
2022/02/02 08:36:25;;;;;;;10.10;1.90;;;7.20;99.90;;;;;;5053460;28;20049;-80
2022/02/02 08:39:01;;;;;;;8.18;2.47;;;7.20;99.90;;;;;;5053703;28;20539;-81
2022/02/02 08:41:32;;;;;;;10.77;2.35;;;7.20;99.90;;;;;;5053502;28;20405;-82
2022/02/02 08:44:03;;;;;;;10.70;2.28;;;7.20;99.90;;;;;;5053259;28;20087;-81
2022/02/02 08:46:35;;;;;;;7.78;1.90;;;7.20;99.90;;;;;;5053615;28;20091;-81
2022/02/02 08:49:07;;;;;;;8.18;2.03;;;7.20;99.90;;;;;;5053515;28;20049;-80
2022/02/02 08:51:39;;;;;;;9.77;2.63;;;7.20;99.90;;;;;;5053428;28;20060;-79
2022/02/02 08:54:17;;;;;;;10.32;2.50;;;7.20;99.90;;;;;;5062958;28;20051;-82
2022/02/02 08:59:40;;;;;;;11.75;2.65;;;7.20;99.90;;;;;;5073530;28;20507;-80
2022/02/02 09:02:13;;;;;;;8.65;2.35;;;7.20;99.90;;;;;;5073010;28;20048;-80
2022/02/02 09:07:24;;;;;;;12.93;2.90;;;7.10;99.90;;;;;;5073428;28;20421;-83
2022/02/02 09:10:00;;;;;;;9.75;2.55;;;7.10;99.90;;;;;;5073355;28;20080;-77
2022/02/02 09:23:33;;;;;;;11.10;2.75;;;7.00;99.90;;;;;;5028612;28;20045;-80
2022/02/02 09:31:42;;;;;;;13.95;2.50;;;7.10;99.90;;;;;;5052632;28;20512;-81
2022/02/02 09:34:12;;;;;;;12.85;2.60;;;7.20;99.90;;;;;;5042933;28;20107;-82
2022/02/02 09:36:43;;;;;;;11.55;2.35;;;7.20;99.90;;;;;;5052317;28;20045;-82
2022/02/02 09:39:18;;;;;;;12.82;2.80;;;7.20;99.90;;;;;;5052888;28;20040;-82
2022/02/02 09:41:48;;;;;;;9.88;2.33;;;7.20;99.90;;;;;;5052911;28;20140;-80
2022/02/02 09:44:21;;;;;;;13.13;3.22;;;7.30;99.90;;;;;;5053114;28;20056;-79
2022/02/02 09:46:57;;;;;;;12.55;2.15;;;7.30;99.90;;;;;;5053887;28;20049;-79
2022/02/02 09:49:31;;;;;;;9.38;2.53;;;7.40;99.90;;;;;;5056045;28;20053;-78
2022/02/02 09:52:03;;;;;;;14.35;2.55;;;7.40;99.90;;;;;;5057403;28;20049;-80
2022/02/02 09:54:36;;;;;;;9.70;2.90;;;7.40;99.90;;;;;;5058025;28;20049;-80
2022/02/02 10:00:14;;;;;;;8.35;2.40;;;7.40;99.90;;;;;;5056297;28;20405;-80
2022/02/02 10:03:08;;;;;;;12.00;2.40;;;7.40;99.90;;;;;;5057514;28;20049;-80
2022/02/02 10:05:46;;;;;;;12.13;2.50;;;7.50;99.90;;;;;;5056235;28;20453;-79
2022/02/02 10:08:47;;;;;;;11.20;2.70;;;7.50;99.90;;;;;;5057574;28;20117;-80
2022/02/02 10:14:39;;;;;;;13.50;2.90;;;7.50;99.90;;;;;;5056608;28;20060;-78
2022/02/02 10:17:11;;;;;;;16.70;2.75;;;7.50;99.90;;;;;;5056880;28;20059;-78
2022/02/02 10:19:38;;;;;;;11.05;3.10;;;7.50;99.90;;;;;;5056656;28;20433;-80
2022/02/02 10:22:25;;;;;;;17.00;3.03;;;7.50;99.90;;;;;;5056781;28;20466;-81
2022/02/02 10:24:59;;;;;;;13.10;3.40;;;7.50;99.90;;;;;;5058482;28;20049;-80
2022/02/02 10:27:32;;;;;;;13.43;3.25;;;7.60;99.90;;;;;;5055707;28;20048;-82
2022/02/02 10:30:10;;;;;;;13.63;3.38;;;7.60;99.90;;;;;;5055712;28;20505;-81
2022/02/02 10:32:42;;;;;;;11.00;2.80;;;7.70;99.90;;;;;;5055896;28;20474;-79
2022/02/02 10:35:11;;;;;;;10.23;2.72;;;7.70;99.90;;;;;;5055754;28;20129;-80
2022/02/02 10:37:46;;;;;;;13.40;3.25;;;7.80;99.90;;;;;;5055750;28;20136;-82
2022/02/02 10:40:13;;;;;;;16.27;3.58;;;7.80;99.90;;;;;;5055684;28;20064;-82
2022/02/02 10:42:43;;;;;;;16.63;3.22;;;7.80;99.90;;;;;;5055090;28;20069;-76
2022/02/02 10:45:22;;;;;;;14.80;3.17;;;7.80;99.90;;;;;;5054933;28;20041;-79
2022/02/02 10:47:58;;;;;;;15.70;3.55;;;7.80;99.90;;;;;;5055517;28;20441;-79
2022/02/02 10:50:32;;;;;;;14.25;2.70;;;7.70;99.90;;;;;;5055321;28;20434;-80
2022/02/02 10:53:30;;;;;;;16.70;3.20;;;7.70;99.90;;;;;;5055463;28;20051;-80
2022/02/02 10:56:20;;;;;;;12.32;2.90;;;7.60;99.90;;;;;;5054600;28;20757;-79
2022/02/02 10:59:13;;;;;;;12.15;2.80;;;7.60;99.90;;;;;;5055099;28;20097;-74
2022/02/02 11:01:46;;;;;;;15.23;3.08;;;7.50;99.90;;;;;;5054105;28;20067;-76
2022/02/02 11:07:00;;;;;;;13.02;3.00;;;7.60;99.90;;;;;;5054532;28;20110;-76
2022/02/02 11:09:30;;;;;;;16.02;3.28;;;7.60;99.90;;;;;;5055006;28;20049;-75
2022/02/02 11:11:58;;;;;;;16.55;4.03;;;7.60;99.90;;;;;;5054890;28;20045;-76
2022/02/02 11:14:35;;;;;;;15.65;3.10;;;7.70;99.90;;;;;;5054986;28;20413;-76
2022/02/02 11:17:09;;;;;;;15.82;3.15;;;7.80;99.90;;;;;;5054960;28;20041;-74
2022/02/02 11:19:39;;;;;;;17.73;3.83;;;7.90;99.90;;;;;;5054808;28;20147;-74
2022/02/02 11:22:31;;;;;;;17.23;3.20;;;8.00;99.90;;;;;;5054637;28;20056;-74
2022/02/02 11:25:34;;;;;;;14.18;3.17;;;8.00;99.90;;;;;;5054791;28;20055;-76
2022/02/02 11:28:09;;;;;;;13.30;2.95;;;8.10;98.70;;;;;;5054720;28;20071;-76
2022/02/02 11:30:42;;;;;;;13.90;3.20;;;8.20;98.90;;;;;;5054965;28;20052;-75
2022/02/02 11:33:25;;;;;;;12.70;2.88;;;8.20;99.10;;;;;;5055111;28;20044;-75
2022/02/02 11:35:58;;;;;;;12.07;2.83;;;8.30;98.90;;;;;;5054451;28;20447;-75
2022/02/02 11:38:43;;;;;;;16.92;2.95;;;8.30;98.70;;;;;;5054404;28;20049;-77
2022/02/02 11:41:27;;;;;;;12.40;2.92;;;8.40;98.80;;;;;;5054442;28;20055;-75
2022/02/02 11:43:59;;;;;;;11.40;2.67;;;8.40;98.60;;;;;;5054381;28;20049;-76
2022/02/02 11:47:06;;;;;;;11.98;2.85;;;8.40;97.80;;;;;;5054372;28;20049;-75
2022/02/02 11:49:50;;;;;;;18.02;3.20;;;8.50;98.10;;;;;;5054322;28;20143;-76
2022/02/02 11:52:49;;;;;;;17.45;3.20;;;8.50;98.10;;;;;;5054437;28;20048;-75
2022/02/02 11:55:48;;;;;;;14.40;2.60;;;8.60;97.70;;;;;;5031965;28;20124;-75
2022/02/02 11:58:32;;;;;;;9.77;2.35;;;8.60;97.90;;;;;;5054168;28;20064;-77
2022/02/02 12:01:07;;;;;;;15.50;2.92;;;8.70;98.10;;;;;;5054343;28;20075;-77
2022/02/02 12:06:43;;;;;;;13.55;3.15;;;8.80;96.60;;;;;;5053603;28;20457;-77
2022/02/02 12:09:21;;;;;;;13.07;2.58;;;8.80;96.30;;;;;;5053983;28;20048;-75
2022/02/02 12:49:01;;;;;;;9.63;2.28;;;9.50;95.20;;;;;;5053375;28;20385;-75
2022/02/02 12:57:11;;;;;;;12.27;2.42;;;9.40;94.90;;;;;;5054024;28;20045;-76
2022/02/02 13:02:24;;;;;;;10.27;2.65;;;9.30;94.90;;;;;;5053462;28;20056;-77
2022/02/02 13:05:00;;;;;;;12.75;2.45;;;9.30;94.90;;;;;;5053792;28;20049;-76
2022/02/02 13:07:28;;;;;;;10.95;3.03;;;9.30;94.80;;;;;;5055489;28;20490;-77
2022/02/02 13:09:56;;;;;;;10.00;2.40;;;9.30;94.00;;;;;;5053429;28;20052;-74
2022/02/02 13:12:34;;;;;;;12.57;2.45;;;9.30;94.60;;;;;;5053423;28;20475;-76
2022/02/02 13:15:16;;;;;;;10.80;2.88;;;9.20;94.80;;;;;;5052509;28;20115;-75
2022/02/02 13:18:01;;;;;;;13.65;2.90;;;9.20;94.60;;;;;;5053843;28;20045;-74
2022/02/02 13:20:46;;;;;;;14.60;2.85;;;9.30;95.00;;;;;;5053099;28;20132;-80
2022/02/02 13:23:20;;;;;;;13.43;2.85;;;9.40;94.50;;;;;;5052645;28;20099;-75
2022/02/02 13:25:52;;;;;;;14.93;3.38;;;9.40;94.40;;;;;;5057699;28;20217;-75
2022/02/02 13:28:44;;;;;;;14.93;2.85;;;9.30;94.70;;;;;;5062610;28;20461;-76
2022/02/02 13:31:37;;;;;;;13.00;2.55;;;9.30;94.80;;;;;;5064106;28;20049;-77
2022/02/02 13:34:29;;;;;;;12.15;2.67;;;9.20;95.40;;;;;;5066649;28;20045;-77
2022/02/02 13:37:29;;;;;;;12.32;2.60;;;9.10;97.00;;;;;;5067957;28;20055;-80
2022/02/02 13:45:51;;;;;;;;;;;8.90;99.90;;;;;;5043559;28;20050;-76
2022/02/02 13:51:29;;;;;;;15.32;3.65;;;8.70;99.90;;;;;;5064001;28;19968;-81
2022/02/02 13:54:34;;;;;;;11.73;2.70;;;8.60;99.90;;;;;;5060315;28;20075;-80
2022/02/02 13:57:13;;;;;;;9.07;2.28;;;8.60;99.90;;;;;;5061189;28;20045;-78
2022/02/02 14:05:40;;;;;;;11.48;2.20;;;8.20;99.90;;;;;;5066110;28;20052;-79
2022/02/02 14:09:01;;;;;;;12.15;2.17;;;8.10;99.90;;;;;;5056667;28;20053;-77
2022/02/02 14:11:42;;;;;;;8.23;1.77;;;7.90;99.90;;;;;;5063323;28;20056;-79
2022/02/02 14:33:28;;;;;;;8.55;2.28;;;7.30;99.90;;;;;;5055390;28;20142;-78
2022/02/02 14:35:58;;;;;;;9.60;2.28;;;7.30;99.90;;;;;;5055418;28;20497;-78
2022/02/02 14:38:27;;;;;;;8.00;2.05;;;7.30;99.90;;;;;;5055809;28;20479;-79
2022/02/02 14:41:05;;;;;;;9.68;2.50;;;7.30;99.90;;;;;;5055681;28;20045;-78
2022/02/02 14:43:38;;;;;;;7.43;2.10;;;7.30;99.90;;;;;;5055728;28;20075;-78
2022/02/02 14:46:09;;;;;;;7.15;2.00;;;7.30;99.90;;;;;;5055068;28;20126;-79
2022/02/02 14:48:43;;;;;;;10.25;2.60;;;7.30;99.90;;;;;;5055177;28;20045;-79
2022/02/02 14:51:19;;;;;;;8.88;2.60;;;7.30;99.90;;;;;;5055553;28;20056;-78
2022/02/02 14:53:57;;;;;;;6.53;2.00;;;7.30;99.90;;;;;;5056598;28;20486;-80
2022/02/02 15:29:36;;;;;;;10.63;2.70;;;8.00;99.90;;;;;;5055563;28;20049;-78
2022/02/02 15:32:07;;;;;;;9.13;2.53;;;8.00;99.90;;;;;;5055251;28;20076;-78
2022/02/02 15:34:38;;;;;;;9.48;2.50;;;8.00;99.90;;;;;;5054716;28;20449;-76
2022/02/02 15:39:58;;;;;;;9.68;2.50;;;7.90;99.90;;;;;;5057398;28;20041;-77
2022/02/02 15:42:39;;;;;;;11.85;2.80;;;7.90;99.90;;;;;;5059099;28;20111;-77
2022/02/02 15:58:54;;;;;;;10.32;2.88;;;8.00;99.90;;;;;;5054048;28;20048;-78
2022/02/02 16:04:26;;;;;;;8.52;2.50;;;8.00;99.90;;;;;;5011657;28;20402;-80
2022/02/02 16:06:55;;;;;;;11.35;2.72;;;8.00;99.90;;;;;;5012057;28;20049;-77
2022/02/02 16:09:26;;;;;;;10.35;2.60;;;8.00;99.90;;;;;;5032161;28;20042;-76
2022/02/02 16:12:07;;;;;;;9.98;2.38;;;7.90;99.90;;;;;;5053917;28;20127;-75
2022/02/02 16:14:41;;;;;;;10.30;3.50;;;7.80;99.90;;;;;;5054083;28;20049;-76
2022/02/02 16:17:32;;;;;;;10.40;3.45;;;7.70;99.90;;;;;;5053160;28;20080;-76
2022/02/02 16:36:31;;;;;;;;;;;7.60;99.90;;;;;;5060967;28;20437;-77
2022/02/02 16:39:01;;;;;;;7.97;2.67;;;7.60;99.90;;;;;;5053520;28;20258;-75
2022/02/02 16:44:18;;;;;;;7.13;2.45;;;7.60;99.90;;;;;;4996352;28;20047;-75
2022/02/02 16:46:46;;;;;;;7.18;2.53;;;7.60;99.90;;;;;;5053056;28;20397;-74
2022/02/02 16:49:13;;;;;;;7.05;2.17;;;7.50;99.90;;;;;;5053473;28;20141;-75
2022/02/02 16:51:42;;;;;;;5.28;1.85;;;7.50;99.90;;;;;;5053534;28;20135;-74
2022/02/02 16:54:16;;;;;;;4.50;1.70;;;7.50;99.90;;;;;;5053227;28;20052;-77
2022/02/02 16:56:58;;;;;;;5.35;1.80;;;7.50;99.90;;;;;;5052974;28;20041;-75
2022/02/02 17:24:31;;;;;;;6.30;2.28;;;7.30;99.90;;;;;;5052936;28;20107;-75
2022/02/02 17:32:42;;;;;;;5.35;2.53;;;7.40;99.90;;;;;;5064817;28;20036;-75
2022/02/02 17:35:23;;;;;;;5.85;1.98;;;7.40;99.90;;;;;;5072446;28;20056;-75
2022/02/02 17:37:59;;;;;;;4.85;2.20;;;7.30;99.90;;;;;;5071741;28;20468;-76
2022/02/02 17:40:44;;;;;;;6.25;2.10;;;7.40;99.90;;;;;;5038397;28;20621;-75
2022/02/02 17:43:38;;;;;;;6.03;2.30;;;7.40;99.90;;;;;;5055607;28;20073;-76
2022/02/02 18:03:29;;;;;;;6.00;2.65;;;7.30;99.90;;;;;;5047147;28;20049;-74
2022/02/02 18:19:48;;;;;;;6.70;2.90;;;7.20;99.90;;;;;;5056086;28;20044;-75
2022/02/02 18:22:16;;;;;;;12.40;5.50;;;7.20;99.90;;;;;;5056239;28;20044;-77
2022/02/02 18:24:56;;;;;;;15.60;6.63;;;7.20;99.90;;;;;;5056055;28;20136;-76
2022/02/02 18:27:32;;;;;;;18.10;9.52;;;7.20;99.90;;;;;;5055937;28;20087;-78
2022/02/02 18:30:13;;;;;;;6.60;3.40;;;7.20;99.90;;;;;;5055746;28;20540;-76
2022/02/02 18:32:48;;;;;;;5.43;2.80;;;7.20;99.90;;;;;;5055835;28;20045;-78
2022/02/02 18:35:18;;;;;;;6.88;3.35;;;7.20;99.90;;;;;;5056159;28;20402;-76
2022/02/02 18:39:00;;;;;;;4.97;2.88;;;7.20;99.90;;;;;;5056029;28;20056;-76
2022/02/02 18:44:28;;;;;;;4.55;2.78;;;7.10;99.90;;;;;;5035436;28;20041;-76
2022/02/02 18:49:45;;;;;;;6.28;3.22;;;7.10;99.90;;;;;;5052593;28;20107;-78
2022/02/02 18:55:17;;;;;;;6.55;3.25;;;7.00;99.90;;;;;;5037042;28;20337;-76
2022/02/02 18:57:56;;;;;;;7.78;3.35;;;7.10;99.90;;;;;;5055288;28;20056;-78
2022/02/02 19:00:40;;;;;;;7.90;4.30;;;7.00;99.90;;;;;;5057489;28;20064;-81
2022/02/02 19:03:34;;;;;;;8.45;5.30;;;7.00;99.90;;;;;;5056075;28;20057;-82
2022/02/02 19:06:37;;;;;;;6.45;3.55;;;7.00;99.90;;;;;;5059014;28;20053;-91
2022/02/02 19:56:26;;;;;;;4.72;2.90;;;6.90;99.90;;;;;;5055634;28;20037;-86
2022/02/02 20:01:51;;;;;;;6.55;3.55;;;6.90;99.90;;;;;;5054106;28;20091;-83
2022/02/02 20:04:36;;;;;;;9.70;4.00;;;7.00;99.90;;;;;;5054005;28;20049;-84
2022/02/02 20:07:11;;;;;;;9.70;5.07;;;7.00;99.90;;;;;;5054281;28;20080;-84
2022/02/02 20:09:56;;;;;;;6.45;3.90;;;7.00;99.90;;;;;;5054588;28;20474;-86
2022/02/02 20:12:27;;;;;;;6.55;3.40;;;7.00;99.90;;;;;;5052140;28;20041;-83
2022/02/02 20:14:54;;;;;;;6.63;3.72;;;7.00;99.90;;;;;;5054331;28;20045;-85
2022/02/02 20:17:24;;;;;;;6.78;3.65;;;7.00;99.90;;;;;;5054665;28;20114;-85
2022/02/02 20:19:55;;;;;;;6.43;3.85;;;7.00;99.90;;;;;;5055312;28;20053;-87
2022/02/02 20:22:25;;;;;;;7.47;4.30;;;7.00;99.90;;;;;;5054029;28;20041;-82
2022/02/02 20:24:57;;;;;;;8.32;4.22;;;7.00;99.90;;;;;;5053847;28;20072;-83
2022/02/02 20:27:26;;;;;;;8.00;4.15;;;7.00;99.90;;;;;;5052847;28;20090;-82
2022/02/02 20:29:53;;;;;;;7.47;4.10;;;7.00;99.90;;;;;;5053195;28;20461;-82
2022/02/02 20:32:21;;;;;;;7.70;4.40;;;7.00;99.90;;;;;;5052765;28;20152;-81
2022/02/02 20:34:48;;;;;;;7.05;4.05;;;7.00;99.90;;;;;;5053517;28;20147;-87
2022/02/02 20:37:18;;;;;;;7.45;4.55;;;7.10;99.90;;;;;;5057355;28;20076;-86
2022/02/02 20:39:52;;;;;;;6.30;3.92;;;7.10;99.90;;;;;;5063034;28;20425;-83
2022/02/02 20:42:31;;;;;;;6.78;3.80;;;7.10;99.90;;;;;;5059818;28;20053;-84
2022/02/02 21:04:30;;;;;;;6.57;3.85;;;7.10;99.90;;;;;;5052738;28;20041;-81
2022/02/02 21:09:53;;;;;;;6.65;4.07;;;7.20;99.90;;;;;;5052982;28;20052;-80
2022/02/02 21:15:13;;;;;;;6.55;4.28;;;7.20;99.90;;;;;;5052563;28;20072;-80
2022/02/02 21:17:41;;;;;;;6.47;4.30;;;7.20;99.90;;;;;;5052219;28;20383;-81
2022/02/02 21:20:18;;;;;;;7.13;4.07;;;7.20;99.90;;;;;;5052646;28;20548;-79
2022/02/02 21:22:55;;;;;;;6.78;4.30;;;7.20;99.90;;;;;;5052855;28;20119;-79
2022/02/02 21:25:35;;;;;;;6.95;3.88;;;7.30;99.90;;;;;;5052314;28;20052;-80
2022/02/02 21:28:07;;;;;;;7.35;4.38;;;7.20;99.90;;;;;;5052736;28;20045;-78
2022/02/02 21:30:39;;;;;;;7.15;4.20;;;7.30;99.90;;;;;;5051998;28;20056;-80
2022/02/02 21:33:08;;;;;;;7.15;4.47;;;7.30;99.90;;;;;;5052863;28;20122;-78
2022/02/02 21:35:36;;;;;;;6.50;3.78;;;7.30;99.90;;;;;;5052807;28;20071;-79
2022/02/02 21:38:08;;;;;;;7.72;4.57;;;7.30;99.90;;;;;;5052537;28;20512;-78
2022/02/02 21:40:36;;;;;;;6.82;4.03;;;7.40;99.90;;;;;;5052479;28;20470;-79
2022/02/02 21:43:04;;;;;;;6.32;3.72;;;7.30;99.90;;;;;;5052646;28;20044;-79
2022/02/02 21:45:32;;;;;;;5.82;3.50;;;7.30;99.90;;;;;;5054402;28;20069;-80
2022/02/02 21:48:02;;;;;;;5.88;3.80;;;7.40;99.90;;;;;;5056685;28;20131;-79
2022/02/02 21:50:42;;;;;;;5.88;3.45;;;7.40;99.90;;;;;;5056201;28;20099;-80
2022/02/02 21:53:09;;;;;;;7.25;4.00;;;7.30;99.90;;;;;;5056322;28;20504;-79
2022/02/02 21:55:36;;;;;;;7.82;4.32;;;7.40;99.90;;;;;;5056088;28;20467;-78
2022/02/02 21:58:04;;;;;;;7.30;4.10;;;7.40;99.90;;;;;;5056334;28;20064;-80
2022/02/02 22:00:32;;;;;;;7.95;4.20;;;7.40;99.90;;;;;;5056403;28;20148;-79
2022/02/02 22:02:59;;;;;;;6.85;4.25;;;7.40;99.90;;;;;;5055286;28;20140;-78
2022/02/02 22:05:27;;;;;;;6.97;4.38;;;7.40;99.90;;;;;;5056356;28;20271;-80
2022/02/02 22:07:54;;;;;;;6.47;4.50;;;7.40;99.90;;;;;;5056277;28;20131;-80
2022/02/02 22:10:24;;;;;;;7.20;4.43;;;7.40;99.90;;;;;;5055759;28;20076;-79
2022/02/02 22:12:51;;;;;;;6.65;3.88;;;7.50;99.90;;;;;;5055849;28;20501;-80
2022/02/02 22:15:24;;;;;;;6.70;3.78;;;7.40;99.90;;;;;;5055251;28;20127;-79
2022/02/02 22:17:51;;;;;;;6.50;4.18;;;7.40;99.90;;;;;;5056365;28;20052;-78
2022/02/02 22:20:18;;;;;;;5.88;3.72;;;7.40;99.90;;;;;;5055982;28;20504;-79
2022/02/02 22:22:48;;;;;;;5.93;3.97;;;7.40;99.90;;;;;;5055338;28;20041;-80
2022/02/02 22:25:18;;;;;;;6.47;4.10;;;7.50;99.90;;;;;;5055429;28;20041;-80
2022/02/02 22:27:45;;;;;;;7.57;4.10;;;7.50;99.90;;;;;;5055958;28;20049;-80
2022/02/02 22:30:12;;;;;;;6.28;3.90;;;7.50;99.90;;;;;;5054822;28;20128;-79
2022/02/02 22:32:39;;;;;;;6.05;4.10;;;7.60;99.90;;;;;;5055404;28;20459;-79
2022/02/02 22:35:07;;;;;;;9.07;5.55;;;7.50;99.90;;;;;;5055362;28;20474;-79
2022/02/02 22:37:35;;;;;;;12.68;6.90;;;7.50;99.90;;;;;;5055314;28;20144;-78
2022/02/02 22:40:05;;;;;;;9.52;5.65;;;7.60;99.90;;;;;;5054682;28;20149;-77
2022/02/02 22:42:33;;;;;;;8.73;5.35;;;7.60;99.90;;;;;;5070519;28;20485;-80
2022/02/02 22:45:03;;;;;;;8.95;4.88;;;7.60;99.90;;;;;;5075390;28;20044;-81
2022/02/02 22:47:31;;;;;;;8.25;4.32;;;7.60;99.90;;;;;;5074911;28;20049;-80
2022/02/02 22:50:03;;;;;;;7.07;4.35;;;7.60;99.90;;;;;;5074956;28;20041;-79
2022/02/02 22:52:30;;;;;;;7.90;5.05;;;7.60;99.90;;;;;;5064837;28;20049;-80
2022/02/02 22:54:57;;;;;;;8.55;5.35;;;7.60;99.90;;;;;;5054640;28;20052;-79
2022/02/02 22:57:26;;;;;;;10.40;6.47;;;7.60;99.90;;;;;;5071452;28;20140;-78
2022/02/02 22:59:53;;;;;;;11.15;6.32;;;7.60;99.90;;;;;;5071335;28;20041;-81
2022/02/02 23:02:41;;;;;;;11.05;6.70;;;7.60;99.90;;;;;;5054470;28;20056;-80
2022/02/02 23:05:09;;;;;;;9.10;5.80;;;7.60;99.90;;;;;;5054723;28;20059;-79
2022/02/02 23:07:36;;;;;;;7.55;4.22;;;7.60;99.90;;;;;;5053916;28;20537;-81
2022/02/02 23:10:05;;;;;;;5.50;3.33;;;7.60;99.90;;;;;;5062384;28;20127;-79
2022/02/02 23:12:35;;;;;;;4.32;2.60;;;7.60;99.90;;;;;;5074675;28;20049;-80
2022/02/02 23:15:06;;;;;;;4.50;2.70;;;7.60;99.90;;;;;;5074498;28;20059;-79
2022/02/02 23:17:34;;;;;;;4.72;2.65;;;7.60;99.90;;;;;;5067911;28;20479;-80
2022/02/02 23:20:02;;;;;;;4.97;2.90;;;7.60;99.90;;;;;;5054626;28;20072;-79
2022/02/02 23:22:31;;;;;;;6.47;2.95;;;7.60;99.90;;;;;;5054229;28;20547;-78
2022/02/02 23:25:03;;;;;;;4.60;3.10;;;7.70;99.90;;;;;;5056386;28;20072;-78
2022/02/02 23:27:35;;;;;;;4.47;2.70;;;7.70;99.90;;;;;;5074636;28;20059;-80
2022/02/02 23:30:08;;;;;;;5.55;2.92;;;7.70;99.90;;;;;;5060396;28;20045;-80
2022/02/02 23:32:35;;;;;;;5.50;3.35;;;7.80;99.90;;;;;;5054454;28;20122;-80
2022/02/02 23:35:02;;;;;;;6.10;3.25;;;7.80;99.90;;;;;;5054290;28;20553;-79
2022/02/02 23:37:30;;;;;;;5.90;3.30;;;7.80;99.90;;;;;;5054240;28;20460;-81
2022/02/02 23:39:57;;;;;;;6.00;3.55;;;7.80;99.90;;;;;;5054157;28;20136;-80
2022/02/02 23:42:29;;;;;;;5.95;3.42;;;7.80;99.90;;;;;;5054255;28;20162;-81
2022/02/02 23:44:57;;;;;;;6.43;3.85;;;7.70;99.90;;;;;;5054331;28;20110;-80
2022/02/02 23:47:28;;;;;;;6.78;3.80;;;7.70;99.90;;;;;;5053039;28;20141;-79
2022/02/02 23:50:02;;;;;;;7.38;4.40;;;7.70;99.90;;;;;;5053284;28;20056;-80
2022/02/02 23:52:38;;;;;;;5.97;3.92;;;7.70;99.90;;;;;;5053792;28;20040;-80
2022/02/02 23:55:09;;;;;;;7.45;4.35;;;7.70;99.90;;;;;;5055355;28;20051;-79
2022/02/02 23:57:49;;;;;;;6.60;4.18;;;7.70;99.90;;;;;;5053986;28;20095;-80
